Weather reports worldwide

Advertisment
S. Valentino Alla Muta, Italy (16008): temperature & dewpoint: 30.03.2020 22:00:00 - 05.04.2020 22:00:00 (CEST)S. Valentino Alla Muta, Italy (16008): wind speed: 30.03.2020 22:00:00 - 05.04.2020 22:00:00 (CEST)S. Valentino Alla Muta, Italy (16008): wind direction: 30.03.2020 22:00:00 - 05.04.2020 22:00:00 (CEST)S. Valentino Alla Muta, Italy (16008): visibility: 30.03.2020 22:00:00 - 05.04.2020 22:00:00 (CEST)
Date & Time tt [°C] td [°C] ff [km/h] ff [kn] dd vv [km]
05.04.2020 22:00:00 3,0 -2,1 4 2 N 10
05.04.2020 21:00:00 4,8 -2,1 4 2 N 10
05.04.2020 20:00:00 6,8 -2,4 4 2 N 10
05.04.2020 19:00:00 8,2 -1,9 0 0 N 20
05.04.2020 18:00:00 10,0 -0,8 11 6 SSW 20
05.04.2020 17:00:00 10,2 -1,2 11 6 S 20
05.04.2020 16:00:00 10,0 -1,4 15 8 S 10
05.04.2020 15:00:00 9,6 -2,0 18 10 S 20
05.04.2020 14:00:00 9,0 -2,6 16 9 S 10
05.04.2020 13:00:00 8,6 -1,8 16 9 S 10
05.04.2020 12:00:00 4,6 -2,7 13 7 S 10
05.04.2020 11:00:00 2,6 -3,3 11 6 S 10
05.04.2020 10:00:00 0,8 -3,1 4 2 NNE 20
05.04.2020 09:00:00 -2,2 -4,7 5 3 NE 20
05.04.2020 08:00:00 -2,0 -4,5 9 5 NNE 20
05.04.2020 07:00:00 -1,6 -4,8 8 4 NNE 20
05.04.2020 06:00:00 -1,2 -4,7 8 4 NNE 20
05.04.2020 05:00:00 -0,6 -4,1 9 5 NNE 20
05.04.2020 04:00:00 -0,2 -4,1 9 5 NNE 20
05.04.2020 03:00:00 0,4 -4,2 5 3 NNE 20
05.04.2020 02:00:00 0,8 -4,4 5 3 NNE 20
05.04.2020 01:00:00 1,8 -4,7 5 3 N 20
05.04.2020 00:00:00 2,6 -4,8 5 3 NNE 20
04.04.2020 23:00:00 3,6 -5,1 4 2 NNE 20
04.04.2020 22:00:00 4,6 -6,0 8 4 NNE 20
04.04.2020 21:00:00 5,6 -5,7 9 5 NNE 20
04.04.2020 20:00:00 8,0 -5,8 5 3 NNE 20
04.04.2020 19:00:00 9,4 -6,1 5 3 NNE 20
04.04.2020 18:00:00 11,0 -5,9 11 6 NNW 20
04.04.2020 17:00:00 11,6 -6,3 11 6 N 20
04.04.2020 16:00:00 11,6 -6,8 8 4 NNE 20
04.04.2020 15:00:00 11,0 -5,0 11 6 N 20
04.04.2020 14:00:00 10,2 -3,8 11 6 N 20
04.04.2020 13:00:00 8,2 -3,3 9 5 N 20
04.04.2020 12:00:00 5,4 -1,7 9 5 N 20
04.04.2020 11:00:00 2,2 -2,7 9 5 NNE 20
04.04.2020 10:00:00 0,4 -3,5 8 4 N 20
04.04.2020 09:00:00 -2,0 -4,3 9 5 N 10
04.04.2020 08:00:00 -2,0 -4,3 8 4 N 10
04.04.2020 07:00:00 -1,4 -4,4 5 3 N 10
04.04.2020 06:00:00 -1,4 -4,4 5 3 N 10
04.04.2020 05:00:00 -1,2 -4,9 5 3 N 10
04.04.2020 04:00:00 -1,0 -4,9 8 4 N 10
04.04.2020 03:00:00 -0,2 -3,7 8 4 NNE 10
04.04.2020 02:00:00 0,2 -3,7 8 4 NNE 10
04.04.2020 01:00:00 0,2 -3,7 8 4 N 10
04.04.2020 00:00:00 1,4 -3,5 8 4 N 10
03.04.2020 23:00:00 2,4 -5,0 9 5 N 10
03.04.2020 22:00:00 2,4 -5,0 9 5 N 10
03.04.2020 21:00:00 4,4 -5,1 8 4 NNE 20
03.04.2020 20:00:00 5,2 -5,8 8 4 NNE 20
03.04.2020 19:00:00 7,2 -5,5 9 5 N 20
03.04.2020 18:00:00 9,2 -5,1 15 8 N 10
03.04.2020 17:00:00 9,8 -4,2 13 7 N 20
03.04.2020 16:00:00 10,0 -4,7 8 4 N 20
03.04.2020 15:00:00 9,2 -4,7 9 5 N 10
03.04.2020 14:00:00 9,4 -4,5 11 6 N 20
03.04.2020 13:00:00 9,2 -4,0 9 5 NNE 10
03.04.2020 12:00:00 1,4 -9,2 11 6 NNE 10
03.04.2020 11:00:00 3,8 -4,4 9 5 N 10
03.04.2020 10:00:00 3,0 -2,9 11 6 NNE 10
03.04.2020 09:00:00 0,4 -3,0 5 3 NE 10
03.04.2020 08:00:00 -1,2 -4,2 5 3 NNE 10
03.04.2020 07:00:00 - - - - - -
03.04.2020 06:00:00 -0,8 -3,5 8 4 NNE 12
03.04.2020 05:00:00 -0,8 -3,5 8 4 N 12
03.04.2020 04:00:00 -0,8 -3,5 5 3 N 12
03.04.2020 03:00:00 -0,8 -3,5 5 3 N 12
03.04.2020 02:00:00 -1,0 -4,0 0 0 N 12
03.04.2020 01:00:00 -0,8 -3,8 9 5 NNE 12
03.04.2020 00:00:00 -0,4 -4,3 9 5 NNE 12
02.04.2020 23:00:00 -0,2 -4,3 8 4 NNE 12
02.04.2020 22:00:00 0,8 -4,4 0 0 N 12
02.04.2020 21:00:00 2,6 -3,9 0 0 N 12
02.04.2020 20:00:00 4,6 -3,7 0 0 N 20
02.04.2020 19:00:00 5,2 -4,6 0 0 N 20
02.04.2020 18:00:00 6,0 -4,7 9 5 SSW 20
02.04.2020 17:00:00 6,4 -5,3 13 7 S 20
02.04.2020 16:00:00 7,6 -4,2 15 8 SSW 20
02.04.2020 15:00:00 8,0 -5,4 11 6 S 20
02.04.2020 14:00:00 7,8 -5,6 11 6 SSW 20
02.04.2020 13:00:00 7,8 -8,7 11 6 SSW 20
02.04.2020 12:00:00 3,4 -10,3 11 6 N 20
02.04.2020 11:00:00 3,2 -7,0 9 5 NNE 20
02.04.2020 10:00:00 -0,4 -5,2 5 3 N 20
02.04.2020 09:00:00 -5,2 -6,7 5 3 N 10
02.04.2020 08:00:00 -5,0 -6,5 5 3 N 10
02.04.2020 07:00:00 -5,2 -6,6 5 3 NE 10
02.04.2020 06:00:00 -5,2 -6,6 5 3 ENE 10
02.04.2020 05:00:00 -5,0 -6,4 5 3 ENE 10
02.04.2020 04:00:00 - - - - - -
02.04.2020 03:00:00 -4,0 -6,3 5 3 NE 10
02.04.2020 02:00:00 -4,0 -6,3 5 3 NE 10
02.04.2020 01:00:00 -3,4 -6,0 0 0 N 10
02.04.2020 00:00:00 -3,4 -6,0 0 0 N 10
01.04.2020 23:00:00 -2,2 -5,7 0 0 N 10
01.04.2020 22:00:00 2,2 -2,0 5 3 E 10
01.04.2020 21:00:00 -1,0 -6,2 5 3 NE 10
01.04.2020 20:00:00 0,4 -5,4 5 3 WSW 10
01.04.2020 19:00:00 1,0 -6,3 8 4 SSE 10
01.04.2020 18:00:00 4,8 -6,1 13 7 SSW 10
01.04.2020 17:00:00 4,8 -6,1 13 7 SSW 10
01.04.2020 16:00:00 4,8 -6,1 13 7 SSW 10
01.04.2020 15:00:00 4,8 -6,1 13 7 SSW 10
01.04.2020 14:00:00 4,6 -6,3 9 5 S 10
01.04.2020 13:00:00 3,8 -7,0 11 6 N 10
01.04.2020 12:00:00 3,6 -8,4 9 5 SSW 10
01.04.2020 11:00:00 -1,0 -8,2 9 5 N 10
01.04.2020 10:00:00 -3,2 -8,3 9 5 N 10
01.04.2020 09:00:00 -6,4 -9,8 9 5 N 20
01.04.2020 08:00:00 -7,4 -9,8 8 4 N 20
01.04.2020 07:00:00 -7,2 -9,9 5 3 N 12
01.04.2020 06:00:00 -7,0 -9,7 5 3 N 12
01.04.2020 05:00:00 -7,2 -10,1 5 3 NNW 12
01.04.2020 04:00:00 -6,6 -9,8 5 3 NNW 12
01.04.2020 03:00:00 -5,8 -9,2 0 0 N 12
01.04.2020 02:00:00 -5,4 -9,0 0 0 N 12
01.04.2020 01:00:00 -5,2 -10,0 5 3 NNE 12
01.04.2020 00:00:00 -4,6 -9,6 5 3 NNE 12
31.03.2020 23:00:00 -4,0 -9,6 9 5 NNE 12
31.03.2020 22:00:00 -3,4 -10,3 5 3 N 12
31.03.2020 21:00:00 -2,6 -10,2 9 5 N 12
31.03.2020 20:00:00 -1,6 -10,7 11 6 N 14
31.03.2020 19:00:00 -0,6 -11,6 13 7 N 20
31.03.2020 18:00:00 0,8 -11,6 9 5 N 20
31.03.2020 17:00:00 0,8 -12,6 11 6 NNE 20
31.03.2020 16:00:00 2,4 -12,2 11 6 NNE 20
31.03.2020 15:00:00 2,8 -11,5 15 8 N 20
31.03.2020 14:00:00 2,4 -11,1 16 9 N 20
31.03.2020 13:00:00 1,8 -12,8 16 9 N 20
31.03.2020 12:00:00 1,4 -13,1 15 8 N 20
31.03.2020 11:00:00 -2,8 -7,5 11 6 NE 20
31.03.2020 10:00:00 -5,4 -8,0 15 8 NE 20
31.03.2020 09:00:00 -7,2 -8,5 13 7 NNE 10
31.03.2020 08:00:00 -7,2 -8,5 15 8 NNE 10
31.03.2020 07:00:00 - - - - - -
31.03.2020 06:00:00 -5,8 -7,8 13 7 NE 10
31.03.2020 05:00:00 -5,8 -7,8 13 7 NE 10
31.03.2020 04:00:00 -5,8 -7,8 13 7 NE 10
31.03.2020 03:00:00 -5,4 -7,4 15 8 ENE 10
31.03.2020 02:00:00 -4,6 -6,6 11 6 ENE 10
31.03.2020 01:00:00 -4,6 -6,6 11 6 ENE 10
31.03.2020 00:00:00 -4,0 -30,0 13 7 ENE 10
30.03.2020 23:00:00 -3,2 -5,8 13 7 NNE 10
30.03.2020 22:00:00 -2,8 -5,0 13 7 NNE 10

tt = temperature
td = dewpoint
ff = wind speed
dd = wind direction
vv = visibility

Next stations